createdAt,value
2019-06-15T04:00:54.759Z,99.99
2019-06-15T04:01:54.934Z,99.99
2019-06-15T04:02:55.107Z,99.99
2019-06-15T04:03:55.288Z,99.99
2019-06-15T04:04:55.459Z,99.99
2019-06-15T04:05:55.633Z,99.99
2019-06-15T04:06:55.809Z,99.99
2019-06-15T04:07:55.976Z,99.99
2019-06-15T04:08:56.152Z,99.99
2019-06-15T04:09:56.325Z,99.99
2019-06-15T04:10:56.498Z,99.99
2019-06-15T04:11:56.673Z,99.99
2019-06-15T04:12:56.846Z,99.99
2019-06-15T04:13:57.024Z,99.99
2019-06-15T04:14:57.203Z,99.99
2019-06-15T04:15:57.371Z,99.99
2019-06-15T04:16:57.546Z,99.99
2019-06-15T04:17:57.720Z,99.99
2019-06-15T04:18:57.892Z,99.99
2019-06-15T04:19:58.067Z,99.99
2019-06-15T04:20:58.242Z,99.99
2019-06-15T04:21:58.423Z,99.99
2019-06-15T04:22:58.591Z,99.99
2019-06-15T04:23:58.765Z,99.99
2019-06-15T04:24:58.940Z,99.99
2019-06-15T04:25:59.123Z,99.99
2019-06-15T04:26:59.290Z,99.99
2019-06-15T04:27:59.463Z,99.99
2019-06-15T04:28:59.635Z,99.99
2019-06-15T04:29:59.810Z,99.99
2019-06-15T04:30:59.983Z,99.99
2019-06-15T04:32:00.162Z,99.99
2019-06-15T04:33:00.332Z,99.99
2019-06-15T04:34:00.507Z,99.99
2019-06-15T04:35:00.683Z,99.99
2019-06-15T04:36:00.863Z,99.99
2019-06-15T04:37:01.027Z,99.99
2019-06-15T04:38:01.202Z,99.99
2019-06-15T04:39:01.372Z,99.99
2019-06-15T04:40:01.547Z,99.99
2019-06-15T04:41:01.827Z,99.99
2019-06-15T04:42:01.895Z,99.99
2019-06-15T04:43:02.069Z,99.99
2019-06-15T04:44:02.242Z,99.99
2019-06-15T04:45:02.419Z,99.99
2019-06-15T04:46:02.591Z,99.99
2019-06-15T04:47:02.766Z,99.99
2019-06-15T04:48:02.942Z,99.99
2019-06-15T04:49:03.159Z,99.99
2019-06-15T04:50:03.287Z,99.99
2019-06-15T04:51:03.468Z,99.99
2019-06-15T04:52:03.661Z,99.99
2019-06-15T04:53:03.806Z,99.99
2019-06-15T04:54:03.980Z,99.99
2019-06-15T04:55:04.154Z,99.99
2019-06-15T04:56:04.330Z,99.99
2019-06-15T04:57:04.501Z,99.99
2019-06-15T04:58:04.676Z,99.99
2019-06-15T04:59:04.852Z,99.99
2019-06-15T05:00:05.028Z,99.99
2019-06-15T05:01:05.197Z,99.99
2019-06-15T05:02:05.376Z,99.99
2019-06-15T05:03:05.544Z,99.99
2019-06-15T05:04:05.718Z,99.99
2019-06-15T05:05:05.894Z,99.99
2019-06-15T05:06:06.067Z,99.99
2019-06-15T05:07:06.241Z,99.99
2019-06-15T05:08:06.415Z,99.99
2019-06-15T05:09:06.587Z,99.99
2019-06-15T05:10:06.759Z,99.99
2019-06-15T05:11:06.934Z,99.99
2019-06-15T05:12:07.106Z,99.99
2019-06-15T05:13:07.281Z,99.99
2019-06-15T05:14:07.458Z,99.99
2019-06-15T05:15:07.632Z,99.99
2019-06-15T05:16:07.808Z,99.99
2019-06-15T05:17:07.992Z,99.99
2019-06-15T05:18:08.157Z,99.99
2019-06-15T05:19:08.331Z,99.99
2019-06-15T05:20:08.505Z,99.99
2019-06-15T05:21:08.682Z,99.99
2019-06-15T05:22:08.854Z,99.99
2019-06-15T05:23:09.032Z,99.99
2019-06-15T05:24:09.206Z,99.99
2019-06-15T05:25:09.383Z,99.99
2019-06-15T05:26:09.553Z,99.99
2019-06-15T05:27:09.728Z,99.99
2019-06-15T05:28:09.901Z,99.99
2019-06-15T05:29:10.076Z,99.99
2019-06-15T05:30:10.254Z,99.99
2019-06-15T05:31:10.432Z,99.99
2019-06-15T05:32:10.597Z,99.99
2019-06-15T05:33:10.771Z,99.99
2019-06-15T05:34:10.953Z,99.99
2019-06-15T05:35:11.120Z,99.99
2019-06-15T05:36:11.297Z,99.99
2019-06-15T05:37:11.467Z,99.99
2019-06-15T05:38:11.644Z,99.99
2019-06-15T05:39:11.821Z,99.99
2019-06-15T05:40:11.987Z,99.99
2019-06-15T05:41:12.211Z,99.99
2019-06-15T05:42:12.338Z,99.99
2019-06-15T05:43:12.513Z,99.99
2019-06-15T05:44:12.686Z,99.99
2019-06-15T05:45:12.863Z,99.99
2019-06-15T05:46:13.037Z,99.99
2019-06-15T05:47:13.212Z,99.99
2019-06-15T05:48:13.408Z,99.99
2019-06-15T05:49:13.560Z,99.99
2019-06-15T05:50:13.737Z,99.99
2019-06-15T05:51:13.917Z,99.99
2019-06-15T05:52:14.107Z,99.99
2019-06-15T05:53:14.263Z,99.99
2019-06-15T05:54:14.439Z,99.99
2019-06-15T05:55:14.613Z,99.99
2019-06-15T05:56:14.788Z,99.99
2019-06-15T05:57:21.521Z,99.99
2019-06-15T05:58:15.138Z,99.99
2019-06-15T05:59:15.313Z,99.99
2019-06-15T06:00:15.488Z,99.99
2019-06-15T06:01:15.665Z,99.99
2019-06-15T06:02:15.869Z,99.99
2019-06-15T06:03:16.017Z,99.99
2019-06-15T06:04:16.194Z,99.99
2019-06-15T06:05:16.365Z,99.99
2019-06-15T06:06:16.545Z,99.99
2019-06-15T06:07:16.716Z,99.99
2019-06-15T06:08:16.892Z,99.99
2019-06-15T06:09:17.066Z,99.99
2019-06-15T06:10:17.244Z,99.99
2019-06-15T06:11:17.417Z,99.99
2019-06-15T06:12:17.592Z,99.99
2019-06-15T06:13:17.779Z,99.99
2019-06-15T06:14:17.943Z,99.99
2019-06-15T06:15:18.119Z,99.99
2019-06-15T06:16:18.295Z,99.99
2019-06-15T06:17:18.469Z,99.99
2019-06-15T06:18:18.647Z,99.99
2019-06-15T06:19:18.819Z,99.99
2019-06-15T06:20:18.999Z,99.99
2019-06-15T06:21:19.172Z,99.99
2019-06-15T06:22:19.345Z,99.99
2019-06-15T06:23:19.518Z,99.99
2019-06-15T06:24:19.695Z,99.99
2019-06-15T06:25:19.869Z,99.99
2019-06-15T06:26:20.043Z,99.99
2019-06-15T06:27:20.221Z,99.99
2019-06-15T06:28:20.397Z,98.44
2019-06-15T06:29:20.572Z,96.56
2019-06-15T06:30:20.746Z,96.41
2019-06-15T06:31:20.928Z,96.17
2019-06-15T06:32:21.099Z,94.48
2019-06-15T06:33:21.292Z,93.96
2019-06-15T06:34:21.460Z,94.78
2019-06-15T06:35:21.626Z,94.39
2019-06-15T06:36:21.801Z,94.29
2019-06-15T06:37:21.976Z,94.00
2019-06-15T06:38:22.155Z,93.71
2019-06-15T06:39:22.328Z,93.43
2019-06-15T06:40:22.511Z,92.94
2019-06-15T06:41:22.683Z,93.47
2019-06-15T06:42:22.855Z,92.08
2019-06-15T06:43:23.039Z,93.08
2019-06-15T06:44:23.207Z,91.40
2019-06-15T06:45:23.381Z,92.12
2019-06-15T06:46:23.560Z,93.47
2019-06-15T06:47:23.731Z,93.28
2019-06-15T06:48:23.908Z,90.96
2019-06-15T06:49:24.082Z,94.24
2019-06-15T06:50:24.256Z,95.69
2019-06-15T06:51:24.431Z,90.82
2019-06-15T06:52:24.606Z,92.02
2019-06-15T06:53:24.781Z,93.85
2019-06-15T06:54:24.954Z,92.70
2019-06-15T06:55:25.136Z,94.24
2019-06-15T06:56:25.311Z,92.50
2019-06-15T06:57:25.483Z,93.66
2019-06-15T06:58:25.657Z,95.01
2019-06-15T06:59:25.829Z,92.50
2019-06-15T07:00:26.001Z,94.82
2019-06-15T07:01:26.177Z,96.27
2019-06-15T07:02:26.350Z,92.41
2019-06-15T07:03:26.525Z,94.43
2019-06-15T07:04:26.700Z,94.05
2019-06-15T07:05:26.881Z,91.54
2019-06-15T07:06:27.053Z,91.54
2019-06-15T07:07:27.231Z,94.77
2019-06-15T07:08:27.396Z,92.84
2019-06-15T07:09:27.579Z,87.34
2019-06-15T07:10:27.754Z,88.17
2019-06-15T07:11:27.923Z,88.21
2019-06-15T07:12:28.091Z,88.11
2019-06-15T07:13:28.265Z,88.84
2019-06-15T07:14:28.454Z,88.55
2019-06-15T07:15:28.621Z,89.95
2019-06-15T07:16:28.798Z,88.55
2019-06-15T07:17:28.973Z,89.17
2019-06-15T07:18:29.150Z,88.98
2019-06-15T07:19:29.322Z,88.31
2019-06-15T07:20:29.497Z,86.86
2019-06-15T07:21:29.670Z,89.89
2019-06-15T07:22:29.847Z,87.48
2019-06-15T07:23:31.969Z,90.37
2019-06-15T07:24:30.201Z,89.51
2019-06-15T07:25:30.372Z,88.54
2019-06-15T07:26:30.547Z,87.29
2019-06-15T07:27:30.722Z,89.89
2019-06-15T07:28:30.915Z,87.38
2019-06-15T07:29:31.072Z,86.42
2019-06-15T07:30:31.288Z,85.26
2019-06-15T07:31:31.420Z,87.67
2019-06-15T07:32:31.594Z,86.13
2019-06-15T07:33:31.772Z,84.30
2019-06-15T07:34:31.952Z,83.56
2019-06-15T07:35:32.113Z,83.85
2019-06-15T07:36:32.302Z,84.91
2019-06-15T07:37:32.476Z,83.37
2019-06-15T07:38:32.658Z,85.30
2019-06-15T07:39:32.830Z,84.72
2019-06-15T07:40:33.005Z,82.69
2019-06-15T07:41:33.182Z,83.75
2019-06-15T07:42:33.359Z,83.66
2019-06-15T07:43:33.532Z,84.82
2019-06-15T07:44:33.715Z,83.85
2019-06-15T07:45:33.890Z,81.82
2019-06-15T07:46:34.083Z,84.53
2019-06-15T07:47:34.238Z,83.37
2019-06-15T07:48:34.415Z,84.19
2019-06-15T07:49:34.590Z,82.83
2019-06-15T07:50:34.767Z,81.29
2019-06-15T07:51:34.940Z,82.35
2019-06-15T07:52:35.117Z,81.09
2019-06-15T07:53:35.301Z,81.19
2019-06-15T07:54:36.296Z,80.94
2019-06-15T07:55:35.644Z,81.52
2019-06-15T07:56:35.828Z,83.84
2019-06-15T07:57:35.986Z,84.22
2019-06-15T07:58:36.164Z,79.29
2019-06-15T07:59:36.339Z,80.55
2019-06-15T08:00:36.515Z,84.90
2019-06-15T08:01:36.691Z,81.62
2019-06-15T08:02:36.870Z,80.55
2019-06-15T08:03:37.044Z,78.61
2019-06-15T08:04:37.219Z,81.81
2019-06-15T08:05:37.389Z,80.69
2019-06-15T08:06:37.574Z,81.37
2019-06-15T08:07:37.748Z,79.33
2019-06-15T08:08:37.933Z,81.56
2019-06-15T08:09:38.103Z,80.05
2019-06-15T08:10:38.280Z,79.17
2019-06-15T08:11:38.452Z,78.50
2019-06-15T08:12:38.630Z,77.34
2019-06-15T08:13:38.807Z,80.34
2019-06-15T08:14:38.997Z,79.27
2019-06-15T08:15:39.149Z,79.95
2019-06-15T08:16:39.327Z,81.98
2019-06-15T08:17:39.504Z,76.28
2019-06-15T08:18:39.679Z,76.76
2019-06-15T08:19:39.856Z,77.05
2019-06-15T08:20:40.039Z,77.01
2019-06-15T08:21:40.204Z,80.30
2019-06-15T08:22:40.375Z,80.15
2019-06-15T08:23:40.532Z,78.31
2019-06-15T08:24:40.749Z,79.70
2019-06-15T08:25:40.880Z,75.63
2019-06-15T08:26:41.053Z,77.03
2019-06-15T08:27:41.226Z,75.81
2019-06-15T08:28:41.394Z,72.96
2019-06-15T08:29:41.569Z,72.28
2019-06-15T08:30:41.775Z,72.12
2019-06-15T08:31:41.914Z,71.64
2019-06-15T08:32:42.092Z,72.16
2019-06-15T08:33:42.345Z,71.67
2019-06-15T08:34:42.422Z,71.28
2019-06-15T08:35:42.580Z,70.12
2019-06-15T08:36:42.761Z,70.41
2019-06-15T08:37:42.921Z,69.93
2019-06-15T08:38:43.093Z,70.61
2019-06-15T08:39:43.274Z,71.28
2019-06-15T08:40:43.432Z,69.76
2019-06-15T08:41:43.604Z,70.12
2019-06-15T08:42:43.873Z,70.03
2019-06-15T08:43:44.009Z,71.67
2019-06-15T08:44:44.181Z,71.19
2019-06-15T08:45:44.356Z,71.06
2019-06-15T08:46:44.532Z,71.15
2019-06-15T08:47:44.705Z,71.70
2019-06-15T08:48:44.881Z,72.05
2019-06-15T08:49:45.057Z,75.05
2019-06-15T08:50:45.258Z,77.09
2019-06-15T08:51:45.415Z,76.31
2019-06-15T08:52:45.581Z,76.41
2019-06-15T08:53:45.769Z,78.34
2019-06-15T08:54:45.933Z,77.47
2019-06-15T08:55:46.112Z,80.28
2019-06-15T08:56:46.285Z,79.12
2019-06-15T08:57:46.459Z,75.87
2019-06-15T08:58:55.007Z,76.64
2019-06-15T08:59:46.810Z,76.25
2019-06-15T09:00:46.986Z,76.41
2019-06-15T09:01:47.164Z,76.41
2019-06-15T09:02:47.336Z,76.79
2019-06-15T09:03:49.438Z,77.14
2019-06-15T09:04:47.741Z,77.63
2019-06-15T09:05:47.866Z,78.41
2019-06-15T09:06:48.075Z,80.19
2019-06-15T09:07:48.217Z,78.05
2019-06-15T09:08:48.403Z,77.76
2019-06-15T09:09:48.566Z,77.86
2019-06-15T09:10:48.747Z,81.83
2019-06-15T09:11:48.919Z,82.32
2019-06-15T09:12:49.107Z,78.74
2019-06-15T09:13:49.272Z,77.12
2019-06-15T09:14:49.451Z,76.93
2019-06-15T09:15:49.621Z,76.15
2019-06-15T09:16:49.797Z,76.54
2019-06-15T09:17:49.971Z,76.29
2019-06-15T09:18:50.146Z,77.84
2019-06-15T09:19:50.325Z,77.94
2019-06-15T09:20:50.620Z,76.58
2019-06-15T09:21:50.672Z,74.68
2019-06-15T09:22:50.849Z,78.27
2019-06-15T09:23:51.026Z,80.40
2019-06-15T09:24:51.203Z,76.32
2019-06-15T09:25:51.378Z,73.36
2019-06-15T09:26:51.552Z,73.74
2019-06-15T09:27:51.722Z,74.23
2019-06-15T09:28:51.898Z,73.07
2019-06-15T09:29:52.074Z,72.52
2019-06-15T09:30:52.249Z,72.87
2019-06-15T09:31:52.434Z,75.30
2019-06-15T09:32:52.606Z,74.77
2019-06-15T09:33:52.781Z,73.86
2019-06-15T09:34:52.954Z,74.93
2019-06-15T09:35:53.127Z,74.70
2019-06-15T09:36:53.304Z,76.74
2019-06-15T09:37:53.480Z,77.09
2019-06-15T09:38:53.655Z,77.09
2019-06-15T09:39:53.833Z,77.53
2019-06-15T09:40:54.010Z,78.50
2019-06-15T09:41:54.179Z,78.50
2019-06-15T09:42:54.356Z,78.31
2019-06-15T09:43:54.532Z,80.82
2019-06-15T09:44:54.710Z,82.08
2019-06-15T09:45:54.892Z,81.02
2019-06-15T09:46:55.064Z,79.57
2019-06-15T09:47:55.240Z,79.27
2019-06-15T09:48:55.418Z,81.35
2019-06-15T09:49:55.608Z,79.99
2019-06-15T09:50:55.774Z,79.80
2019-06-15T09:51:55.951Z,80.57
2019-06-15T09:52:56.124Z,80.19
2019-06-15T09:53:56.299Z,78.54
2019-06-15T09:54:56.478Z,78.83
2019-06-15T09:55:56.660Z,79.35
2019-06-15T09:56:56.837Z,79.70
2019-06-15T09:57:57.010Z,80.09
2019-06-15T09:58:57.187Z,77.67
2019-06-15T09:59:57.370Z,76.99
2019-06-15T10:00:57.545Z,77.96
2019-06-15T10:01:57.720Z,78.74
2019-06-15T10:02:57.901Z,80.87
2019-06-15T10:03:58.077Z,77.80
2019-06-15T10:04:58.255Z,76.51
2019-06-15T10:05:58.427Z,76.60
2019-06-15T10:06:58.602Z,76.86
2019-06-15T10:07:58.779Z,77.78
2019-06-15T10:08:58.954Z,80.01
2019-06-15T10:09:59.131Z,80.69
2019-06-15T10:10:59.309Z,81.17
2019-06-15T10:11:59.483Z,78.91
2019-06-15T10:12:59.661Z,79.24
2019-06-15T10:13:59.838Z,78.08
2019-06-15T10:15:00.026Z,78.66
2019-06-15T10:16:00.183Z,78.27
2019-06-15T10:17:00.487Z,77.78
2019-06-15T10:18:00.557Z,78.31
2019-06-15T10:19:00.736Z,77.63
2019-06-15T10:20:00.911Z,78.02
2019-06-15T10:21:01.087Z,77.05
2019-06-15T10:22:01.274Z,77.73
2019-06-15T10:23:01.440Z,76.99
2019-06-15T10:24:01.607Z,77.76
2019-06-15T10:25:01.998Z,76.41
2019-06-15T10:26:01.954Z,77.76
2019-06-15T10:27:02.129Z,77.86
2019-06-15T10:28:02.297Z,77.42
2019-06-15T10:29:02.475Z,77.59
2019-06-15T10:30:02.651Z,77.49
2019-06-15T10:31:02.830Z,76.01
2019-06-15T10:32:03.007Z,71.58
2019-06-15T10:33:03.183Z,71.48
2019-06-15T10:34:03.398Z,72.98
2019-06-15T10:35:03.538Z,71.66
2019-06-15T10:36:03.720Z,72.82
2019-06-15T10:37:03.892Z,68.22
2019-06-15T10:38:04.063Z,66.76
2019-06-15T10:39:04.246Z,66.11
2019-06-15T10:40:04.414Z,65.56
2019-06-15T10:41:04.586Z,65.75
2019-06-15T10:42:04.762Z,64.20
2019-06-15T10:43:04.938Z,62.18
2019-06-15T10:44:05.118Z,62.28
2019-06-15T10:45:05.301Z,60.55
2019-06-15T10:46:05.469Z,60.75
2019-06-15T10:47:05.647Z,60.78
2019-06-15T10:48:05.831Z,64.23
2019-06-15T10:49:06.003Z,65.14
2019-06-15T10:50:06.177Z,64.32
2019-06-15T10:51:06.354Z,62.50
2019-06-15T10:52:06.532Z,63.67
2019-06-15T10:53:06.712Z,61.14
2019-06-15T10:54:06.897Z,60.85
2019-06-15T10:55:07.064Z,58.77
2019-06-15T10:56:07.241Z,61.01
2019-06-15T10:57:07.421Z,59.87
2019-06-15T10:58:07.601Z,59.48
2019-06-15T10:59:07.823Z,60.39
2019-06-15T11:00:07.955Z,59.90
2019-06-15T11:01:08.132Z,62.18
2019-06-15T11:02:08.316Z,58.95
2019-06-15T11:03:08.493Z,60.64
2019-06-15T11:04:08.672Z,58.50
2019-06-15T11:05:08.895Z,58.30
2019-06-15T11:06:09.031Z,58.81
2019-06-15T11:07:09.208Z,55.10
2019-06-15T11:08:09.389Z,58.40
2019-06-15T11:09:09.593Z,61.88
2019-06-15T11:10:09.757Z,58.76
2019-06-15T11:11:09.926Z,58.31
2019-06-15T11:12:10.103Z,59.06
2019-06-15T11:13:10.286Z,58.74
2019-06-15T11:14:10.471Z,62.54
2019-06-15T11:15:10.648Z,60.36
2019-06-15T11:16:10.884Z,59.02
2019-06-15T11:17:11.010Z,57.71
2019-06-15T11:18:11.190Z,57.74
2019-06-15T11:19:11.371Z,57.67
2019-06-15T11:20:11.553Z,54.35
2019-06-15T11:21:11.731Z,52.76
2019-06-15T11:22:11.919Z,51.10
2019-06-15T11:23:12.091Z,51.56
2019-06-15T11:24:12.278Z,54.88
2019-06-15T11:25:12.453Z,54.00
2019-06-15T11:26:12.629Z,54.22
2019-06-15T11:27:12.828Z,53.64
2019-06-15T11:28:12.996Z,54.08
2019-06-15T11:29:13.178Z,54.35
2019-06-15T11:30:14.615Z,51.71
2019-06-15T11:31:13.552Z,50.49
2019-06-15T11:32:13.778Z,51.46
2019-06-15T11:33:13.922Z,51.59
2019-06-15T11:34:14.093Z,53.05
2019-06-15T11:35:14.275Z,53.09
2019-06-15T11:36:14.457Z,54.14
2019-06-15T11:37:14.686Z,55.41
2019-06-15T11:38:14.817Z,52.90
2019-06-15T11:39:15.000Z,52.73
2019-06-15T11:40:15.193Z,52.37
2019-06-15T11:41:15.358Z,51.49
2019-06-15T11:42:15.536Z,51.37
2019-06-15T11:43:15.724Z,51.95
2019-06-15T11:44:15.903Z,52.73
2019-06-15T11:45:16.081Z,50.78
2019-06-15T11:46:16.260Z,51.56
2019-06-15T11:47:16.437Z,52.78
2019-06-15T11:48:16.630Z,53.95
2019-06-15T11:49:16.809Z,51.51
2019-06-15T11:50:16.985Z,51.82
2019-06-15T11:51:17.167Z,52.17
2019-06-15T11:52:17.346Z,50.73
2019-06-15T11:53:17.525Z,50.15
2019-06-15T11:54:17.705Z,50.73
2019-06-15T11:55:19.935Z,49.68
2019-06-15T11:56:18.071Z,48.43
2019-06-15T11:57:18.258Z,47.65
2019-06-15T11:58:18.431Z,49.46
2019-06-15T11:59:18.613Z,49.36
2019-06-15T12:00:30.753Z,48.54
2019-06-15T12:01:19.111Z,49.63
2019-06-15T12:02:19.168Z,50.20
2019-06-15T12:03:19.343Z,52.51
2019-06-15T12:04:19.527Z,54.17
2019-06-15T12:05:19.710Z,54.36
2019-06-15T12:06:19.894Z,53.54
2019-06-15T12:07:20.073Z,51.17
2019-06-15T12:08:20.255Z,52.66
2019-06-15T12:09:20.438Z,52.76
2019-06-15T12:10:20.615Z,53.74
2019-06-15T12:11:20.797Z,50.90
2019-06-15T12:12:20.983Z,51.00
2019-06-15T12:13:21.167Z,53.37
2019-06-15T12:14:21.349Z,53.76
2019-06-15T12:15:21.537Z,51.12
2019-06-15T12:16:21.715Z,50.83
2019-06-15T12:17:21.897Z,50.44
2019-06-15T12:18:22.077Z,50.61
2019-06-15T12:19:22.256Z,53.47
2019-06-15T12:20:22.438Z,54.44
2019-06-15T12:21:22.625Z,51.03
2019-06-15T12:22:22.802Z,51.42
2019-06-15T12:23:22.987Z,54.25
2019-06-15T12:24:23.166Z,52.32
2019-06-15T12:25:23.350Z,50.49
2019-06-15T12:26:23.532Z,49.51
2019-06-15T12:27:23.713Z,52.03
2019-06-15T12:28:23.896Z,50.78
2019-06-15T12:29:24.077Z,50.29
2019-06-15T12:30:24.257Z,51.56
2019-06-15T12:31:24.439Z,49.46
2019-06-15T12:32:24.621Z,49.46
2019-06-15T12:33:24.805Z,50.34
2019-06-15T12:34:24.988Z,48.97
2019-06-15T12:35:25.171Z,47.77
2019-06-15T12:36:25.356Z,49.29
2019-06-15T12:37:25.544Z,51.27
2019-06-15T12:38:25.713Z,51.42
2019-06-15T12:39:25.893Z,53.08
2019-06-15T12:40:26.077Z,52.83
2019-06-15T12:41:26.255Z,50.78
2019-06-15T12:42:26.441Z,51.64
2019-06-15T12:43:26.622Z,50.98
2019-06-15T12:44:26.806Z,52.66
2019-06-15T12:45:26.997Z,53.89
2019-06-15T12:46:27.169Z,57.60
2019-06-15T12:47:27.361Z,54.17
2019-06-15T12:48:27.528Z,54.07
2019-06-15T12:49:27.710Z,52.87
2019-06-15T12:50:27.892Z,53.36
2019-06-15T12:51:28.076Z,50.90
2019-06-15T12:52:28.262Z,52.70
2019-06-15T12:53:28.439Z,54.65
2019-06-15T12:54:28.617Z,55.55
2019-06-15T12:55:28.810Z,52.87
2019-06-15T12:56:28.997Z,49.88
2019-06-15T12:57:29.167Z,50.63
2019-06-15T12:58:29.342Z,49.66
2019-06-15T12:59:29.522Z,48.75
2019-06-15T13:00:29.707Z,48.34
2019-06-15T13:01:29.887Z,48.14
2019-06-15T13:02:30.074Z,49.78
2019-06-15T13:03:30.255Z,49.41
2019-06-15T13:04:30.453Z,49.51
2019-06-15T13:05:30.614Z,49.68
2019-06-15T13:06:30.795Z,50.12
2019-06-15T13:07:30.970Z,51.73
2019-06-15T13:08:31.151Z,53.87
2019-06-15T13:09:31.342Z,53.85
2019-06-15T13:10:31.514Z,54.21
2019-06-15T13:11:31.691Z,55.41
2019-06-15T13:12:31.873Z,55.72
2019-06-15T13:13:32.053Z,54.60
2019-06-15T13:14:32.234Z,52.54
2019-06-15T13:15:32.418Z,52.22
2019-06-15T13:16:39.472Z,52.00
2019-06-15T13:17:32.776Z,52.95
2019-06-15T13:18:32.957Z,54.09
2019-06-15T13:19:33.136Z,54.52
2019-06-15T13:20:33.319Z,56.05
2019-06-15T13:21:33.495Z,56.84
2019-06-15T13:22:33.730Z,57.10
2019-06-15T13:23:33.863Z,57.56
2019-06-15T13:24:34.040Z,59.25
2019-06-15T13:25:34.215Z,61.77
2019-06-15T13:26:34.395Z,61.84
2019-06-15T13:27:34.573Z,60.93
2019-06-15T13:28:34.757Z,61.41
2019-06-15T13:29:34.934Z,62.48
2019-06-15T13:30:35.113Z,60.86
2019-06-15T13:31:35.294Z,58.75
2019-06-15T13:32:35.472Z,60.36
2019-06-15T13:33:35.648Z,60.42
2019-06-15T13:34:35.829Z,59.70
2019-06-15T13:35:36.004Z,56.51
2019-06-15T13:36:36.190Z,54.08
2019-06-15T13:37:42.025Z,50.98
2019-06-15T13:38:36.545Z,50.39
2019-06-15T13:39:36.775Z,47.28
2019-06-15T13:40:36.905Z,46.42
2019-06-15T13:41:37.082Z,47.40
2019-06-15T13:42:37.263Z,50.78
2019-06-15T13:43:37.443Z,52.03
2019-06-15T13:44:37.626Z,55.00
2019-06-15T13:45:37.813Z,54.05
2019-06-15T13:46:37.993Z,50.93
2019-06-15T13:47:38.167Z,50.49
2019-06-15T13:48:38.352Z,52.48
2019-06-15T13:49:38.529Z,53.31
2019-06-15T13:50:38.714Z,54.43
2019-06-15T13:51:38.887Z,56.93
2019-06-15T13:52:39.111Z,58.26
2019-06-15T13:53:39.260Z,58.23
2019-06-15T13:54:39.430Z,59.11
2019-06-15T13:55:39.606Z,58.62
2019-06-15T13:56:39.802Z,56.54
2019-06-15T13:57:39.969Z,56.30
2019-06-15T13:58:40.151Z,54.11
2019-06-15T13:59:40.332Z,52.34
2019-06-15T14:00:40.515Z,50.63
2019-06-15T14:01:40.692Z,49.46
2019-06-15T14:02:40.897Z,50.24
2019-06-15T14:03:41.051Z,49.77
2019-06-15T14:04:41.273Z,47.75
2019-06-15T14:05:41.404Z,46.69
2019-06-15T14:06:41.579Z,47.67
2019-06-15T14:07:41.768Z,45.73
2019-06-15T14:08:41.945Z,46.64
2019-06-15T14:09:42.132Z,46.64
2019-06-15T14:10:42.297Z,45.27
2019-06-15T14:11:42.478Z,45.66
2019-06-15T14:12:42.672Z,45.44
2019-06-15T14:13:42.845Z,45.44
2019-06-15T14:14:43.037Z,45.95
2019-06-15T14:15:43.211Z,49.43
2019-06-15T14:16:43.392Z,47.67
2019-06-15T14:17:43.571Z,48.38
2019-06-15T14:18:43.757Z,49.29
2019-06-15T14:19:43.933Z,49.63
2019-06-15T14:20:44.113Z,46.94
2019-06-15T14:21:44.296Z,47.87
2019-06-15T14:22:44.481Z,46.62
2019-06-15T14:23:44.670Z,47.03
2019-06-15T14:24:44.836Z,45.68
2019-06-15T14:25:45.014Z,45.23
2019-06-15T14:26:45.194Z,49.16
2019-06-15T14:27:45.376Z,49.32
2019-06-15T14:28:45.559Z,50.53
2019-06-15T14:29:45.744Z,52.44
2019-06-15T14:30:45.922Z,53.85
2019-06-15T14:31:50.009Z,55.66
2019-06-15T14:32:46.284Z,53.06
2019-06-15T14:33:46.467Z,52.17
2019-06-15T14:34:46.647Z,52.02
2019-06-15T14:35:46.857Z,53.83
2019-06-15T14:36:47.010Z,50.15
2019-06-15T14:37:47.185Z,46.08
2019-06-15T14:38:47.371Z,45.32
2019-06-15T14:39:47.551Z,44.95
2019-06-15T14:40:47.730Z,43.31
2019-06-15T14:41:50.977Z,43.38
2019-06-15T14:42:48.087Z,44.85
2019-06-15T14:43:48.266Z,44.37
2019-06-15T14:44:48.469Z,44.93
2019-06-15T14:45:58.891Z,43.98
2019-06-15T14:46:48.809Z,42.88
2019-06-15T14:47:48.990Z,42.70
2019-06-15T14:48:49.185Z,42.80
2019-06-15T14:49:49.348Z,43.70
2019-06-15T14:50:49.532Z,42.94
2019-06-15T14:51:51.096Z,42.18
2019-06-15T14:52:49.903Z,41.41
2019-06-15T14:53:55.514Z,40.43
2019-06-15T14:54:50.261Z,40.82
2019-06-15T14:55:50.447Z,40.63
2019-06-15T14:56:50.626Z,41.58
2019-06-15T14:57:50.806Z,43.33
2019-06-15T14:58:50.987Z,44.68
2019-06-15T14:59:59.858Z,43.46
2019-06-15T15:00:51.339Z,44.34
2019-06-15T15:02:06.346Z,45.52
2019-06-15T15:02:51.712Z,42.38
2019-06-15T15:03:51.892Z,43.17
2019-06-15T15:04:52.078Z,43.24
2019-06-15T15:05:52.260Z,44.01
2019-06-15T15:06:52.440Z,44.59
2019-06-15T15:07:52.624Z,44.10
2019-06-15T15:08:52.809Z,45.55
2019-06-15T15:09:52.985Z,46.04
2019-06-15T15:10:53.174Z,46.43
2019-06-15T15:11:53.456Z,46.72
2019-06-15T15:12:53.539Z,44.06
2019-06-15T15:13:56.087Z,45.04
2019-06-15T15:14:56.272Z,45.04
2019-06-15T15:15:54.085Z,45.23
2019-06-15T15:16:56.850Z,44.09
2019-06-15T15:17:54.444Z,44.20
2019-06-15T15:18:56.698Z,43.52
2019-06-15T15:19:57.114Z,42.85
2019-06-15T15:20:56.468Z,42.56
2019-06-15T15:21:55.166Z,42.85
2019-06-15T15:22:56.846Z,43.15
2019-06-15T15:23:57.109Z,43.63
2019-06-15T15:24:56.128Z,44.03
2019-06-15T15:25:57.598Z,45.86
2019-06-15T15:26:56.067Z,46.36
2019-06-15T15:27:57.178Z,44.18
2019-06-15T15:28:56.683Z,45.33
2019-06-15T15:29:57.161Z,46.97
2019-06-15T15:30:56.765Z,48.19
2019-06-15T15:31:57.749Z,49.83
2019-06-15T15:32:57.305Z,51.48
2019-06-15T15:33:57.313Z,50.12
2019-06-15T15:34:57.495Z,50.63
2019-06-15T15:35:57.681Z,49.95
2019-06-15T15:36:57.858Z,48.02
2019-06-15T15:37:58.043Z,47.07
2019-06-15T15:38:58.225Z,48.36
2019-06-15T15:39:58.406Z,48.26
2019-06-15T15:40:58.587Z,46.31
2019-06-15T15:41:58.768Z,47.14
2019-06-15T15:42:58.952Z,49.49
2019-06-15T15:43:59.133Z,48.83
2019-06-15T15:44:59.337Z,47.87
2019-06-15T15:45:59.500Z,46.62
2019-06-15T15:46:59.685Z,46.62
2019-06-15T15:47:59.870Z,45.55
2019-06-15T15:49:00.050Z,45.65
2019-06-15T15:50:00.234Z,45.76
2019-06-15T15:51:00.410Z,44.49
2019-06-15T15:52:00.591Z,45.67
2019-06-15T15:53:00.775Z,44.96
2019-06-15T15:54:00.961Z,46.50
2019-06-15T15:55:01.144Z,46.36
2019-06-15T15:56:01.313Z,47.12
2019-06-15T15:57:01.529Z,49.27
2019-06-15T15:58:01.677Z,49.17
2019-06-15T15:59:01.857Z,48.36
2019-06-15T16:00:02.040Z,47.58
2019-06-15T16:01:02.214Z,47.49
2019-06-15T16:02:02.395Z,47.75
2019-06-15T16:03:02.594Z,47.56
2019-06-15T16:04:02.774Z,48.34
2019-06-15T16:05:02.942Z,48.83
2019-06-15T16:06:03.108Z,48.61
2019-06-15T16:07:03.293Z,48.71
2019-06-15T16:08:03.468Z,49.56
2019-06-15T16:09:06.043Z,50.34
2019-06-15T16:10:06.099Z,50.99
2019-06-15T16:11:04.013Z,50.78
2019-06-15T16:12:04.189Z,52.69
2019-06-15T16:13:06.524Z,51.60
2019-06-15T16:14:06.975Z,51.40
2019-06-15T16:15:07.060Z,51.21
2019-06-15T16:16:04.909Z,51.79
2019-06-15T16:17:06.713Z,52.40
2019-06-15T16:18:06.786Z,51.82
2019-06-15T16:19:06.538Z,51.79
2019-06-15T16:20:06.596Z,51.62
2019-06-15T16:21:06.431Z,51.82
2019-06-15T16:22:05.991Z,52.23
2019-06-15T16:23:07.434Z,51.39
2019-06-15T16:24:07.339Z,50.60
2019-06-15T16:25:06.949Z,50.51
2019-06-15T16:26:06.660Z,50.21
2019-06-15T16:27:07.170Z,50.80
2019-06-15T16:28:07.279Z,51.29
2019-06-15T16:29:07.161Z,50.58
2019-06-15T16:30:07.328Z,52.69
2019-06-15T16:31:13.332Z,51.60
2019-06-15T16:32:07.686Z,52.57
2019-06-15T16:33:08.117Z,52.74
2019-06-15T16:34:08.021Z,52.84
2019-06-15T16:35:08.184Z,53.32
2019-06-15T16:36:08.372Z,54.17
2019-06-15T16:37:08.535Z,55.24
2019-06-15T16:38:08.716Z,56.67
2019-06-15T16:39:08.877Z,55.11
2019-06-15T16:40:09.051Z,55.21
2019-06-15T16:41:09.236Z,55.53
2019-06-15T16:42:09.413Z,55.24
2019-06-15T16:43:09.580Z,53.88
2019-06-15T16:44:09.765Z,53.91
2019-06-15T16:45:09.935Z,53.78
2019-06-15T16:46:10.113Z,53.88
2019-06-15T16:47:10.292Z,53.91
2019-06-15T16:48:10.468Z,53.52
2019-06-15T16:49:10.647Z,53.91
2019-06-15T16:50:10.804Z,54.10
2019-06-15T16:51:10.984Z,54.10
2019-06-15T16:52:11.166Z,55.36
2019-06-15T16:53:11.338Z,56.04
2019-06-15T16:54:11.512Z,54.39
2019-06-15T16:55:11.696Z,55.73